﻿<?xml version="1.0" encoding="UTF-8" standalone="no" ?>
<gpx xmlns="http://www.topografix.com/GPX/1/1" creator="CompeGPS" version="1.1" xmlns:xsi="http://www.w3.org/2001/XMLSchema-instance" xsi:schemaLocation="http://www.topografix.com/GPX/1/1 http://www.topografix.com/GPX/1/1/gpx.xsd http://www.garmin.com/xmlschemas/GpxExtensions/v3 http://www.garmin.com/xmlschemas/GpxExtensionsv3.xsd http://www.garmin.com/xmlschemas/TrackPointExtension/v1 http://www.garmin.com/xmlschemas/TrackPointExtensionv1.xsd" xmlns:gpxtpx="http://www.garmin.com/xmlschemas/TrackPointExtension/v1">
  <trk>
    <name>Las Fuentes (SL-CC 46)</name>
    <trkseg>
      <trkpt lat="39.667175" lon="-5.813271">
        <ele>502.0</ele>
        <time>2019-07-05T06:07:54Z</time>
      </trkpt>
      <trkpt lat="39.667235" lon="-5.813046">
        <ele>502.0</ele>
        <time>2019-07-05T06:08:12Z</time>
      </trkpt>
      <trkpt lat="39.667295" lon="-5.812804">
        <ele>502.0</ele>
        <time>2019-07-05T06:08:31Z</time>
      </trkpt>
      <trkpt lat="39.667355" lon="-5.812570">
        <ele>503.6</ele>
        <time>2019-07-05T06:08:50Z</time>
      </trkpt>
      <trkpt lat="39.667413" lon="-5.812397">
        <ele>505.0</ele>
        <time>2019-07-05T06:09:05Z</time>
      </trkpt>
      <trkpt lat="39.667560" lon="-5.812159">
        <ele>505.0</ele>
        <time>2019-07-05T06:09:28Z</time>
      </trkpt>
      <trkpt lat="39.667653" lon="-5.811961">
        <ele>507.0</ele>
        <time>2019-07-05T06:09:46Z</time>
      </trkpt>
      <trkpt lat="39.667767" lon="-5.811721">
        <ele>509.0</ele>
        <time>2019-07-05T06:10:08Z</time>
      </trkpt>
      <trkpt lat="39.667909" lon="-5.811456">
        <ele>511.0</ele>
        <time>2019-07-05T06:10:33Z</time>
      </trkpt>
      <trkpt lat="39.668050" lon="-5.811208">
        <ele>513.5</ele>
        <time>2019-07-05T06:10:57Z</time>
      </trkpt>
      <trkpt lat="39.668177" lon="-5.810977">
        <ele>517.0</ele>
        <time>2019-07-05T06:11:19Z</time>
      </trkpt>
      <trkpt lat="39.668346" lon="-5.810696">
        <ele>520.0</ele>
        <time>2019-07-05T06:11:46Z</time>
      </trkpt>
      <trkpt lat="39.668445" lon="-5.810499">
        <ele>523.0</ele>
        <time>2019-07-05T06:12:05Z</time>
      </trkpt>
      <trkpt lat="39.668516" lon="-5.810353">
        <ele>525.1</ele>
        <time>2019-07-05T06:12:18Z</time>
      </trkpt>
      <trkpt lat="39.668568" lon="-5.810171">
        <ele>527.5</ele>
        <time>2019-07-05T06:12:33Z</time>
      </trkpt>
      <trkpt lat="39.668543" lon="-5.810074">
        <ele>528.1</ele>
        <time>2019-07-05T06:12:41Z</time>
      </trkpt>
      <trkpt lat="39.668426" lon="-5.809903">
        <ele>528.0</ele>
        <time>2019-07-05T06:12:59Z</time>
      </trkpt>
      <trkpt lat="39.668256" lon="-5.809643">
        <ele>527.2</ele>
        <time>2019-07-05T06:13:25Z</time>
      </trkpt>
      <trkpt lat="39.668107" lon="-5.809410">
        <ele>526.3</ele>
        <time>2019-07-05T06:13:48Z</time>
      </trkpt>
      <trkpt lat="39.667982" lon="-5.809265">
        <ele>525.3</ele>
        <time>2019-07-05T06:14:05Z</time>
      </trkpt>
      <trkpt lat="39.667917" lon="-5.809175">
        <ele>524.2</ele>
        <time>2019-07-05T06:14:15Z</time>
      </trkpt>
      <trkpt lat="39.667823" lon="-5.809127">
        <ele>523.5</ele>
        <time>2019-07-05T06:14:25Z</time>
      </trkpt>
      <trkpt lat="39.667742" lon="-5.809132">
        <ele>521.1</ele>
        <time>2019-07-05T06:14:33Z</time>
      </trkpt>
      <trkpt lat="39.667740" lon="-5.809211">
        <ele>520.3</ele>
        <time>2019-07-05T06:14:39Z</time>
      </trkpt>
      <trkpt lat="39.667730" lon="-5.809324">
        <ele>519.0</ele>
        <time>2019-07-05T06:14:48Z</time>
      </trkpt>
      <trkpt lat="39.667708" lon="-5.809428">
        <ele>517.2</ele>
        <time>2019-07-05T06:14:56Z</time>
      </trkpt>
      <trkpt lat="39.667671" lon="-5.809558">
        <ele>516.0</ele>
        <time>2019-07-05T06:15:07Z</time>
      </trkpt>
      <trkpt lat="39.667619" lon="-5.809748">
        <ele>515.0</ele>
        <time>2019-07-05T06:15:23Z</time>
      </trkpt>
      <trkpt lat="39.667560" lon="-5.809929">
        <ele>514.0</ele>
        <time>2019-07-05T06:15:38Z</time>
      </trkpt>
      <trkpt lat="39.667492" lon="-5.809988">
        <ele>512.8</ele>
        <time>2019-07-05T06:15:46Z</time>
      </trkpt>
      <trkpt lat="39.667381" lon="-5.810088">
        <ele>511.9</ele>
        <time>2019-07-05T06:16:00Z</time>
      </trkpt>
      <trkpt lat="39.667257" lon="-5.810197">
        <ele>510.8</ele>
        <time>2019-07-05T06:16:15Z</time>
      </trkpt>
      <trkpt lat="39.667105" lon="-5.810331">
        <ele>509.2</ele>
        <time>2019-07-05T06:16:33Z</time>
      </trkpt>
      <trkpt lat="39.666953" lon="-5.810473">
        <ele>507.5</ele>
        <time>2019-07-05T06:16:52Z</time>
      </trkpt>
      <trkpt lat="39.666877" lon="-5.810540">
        <ele>505.6</ele>
        <time>2019-07-05T06:17:01Z</time>
      </trkpt>
      <trkpt lat="39.666761" lon="-5.810596">
        <ele>504.0</ele>
        <time>2019-07-05T06:17:13Z</time>
      </trkpt>
      <trkpt lat="39.666516" lon="-5.810656">
        <ele>500.9</ele>
        <time>2019-07-05T06:17:39Z</time>
      </trkpt>
      <trkpt lat="39.666373" lon="-5.810694">
        <ele>499.4</ele>
        <time>2019-07-05T06:17:53Z</time>
      </trkpt>
      <trkpt lat="39.666245" lon="-5.810698">
        <ele>498.0</ele>
        <time>2019-07-05T06:18:06Z</time>
      </trkpt>
      <trkpt lat="39.666178" lon="-5.810669">
        <ele>497.0</ele>
        <time>2019-07-05T06:18:13Z</time>
      </trkpt>
      <trkpt lat="39.666105" lon="-5.810587">
        <ele>497.0</ele>
        <time>2019-07-05T06:18:23Z</time>
      </trkpt>
      <trkpt lat="39.666068" lon="-5.810463">
        <ele>497.2</ele>
        <time>2019-07-05T06:18:33Z</time>
      </trkpt>
      <trkpt lat="39.666033" lon="-5.810226">
        <ele>497.5</ele>
        <time>2019-07-05T06:18:52Z</time>
      </trkpt>
      <trkpt lat="39.666012" lon="-5.809998">
        <ele>497.2</ele>
        <time>2019-07-05T06:19:09Z</time>
      </trkpt>
      <trkpt lat="39.665996" lon="-5.809796">
        <ele>497.5</ele>
        <time>2019-07-05T06:19:25Z</time>
      </trkpt>
      <trkpt lat="39.665968" lon="-5.809550">
        <ele>498.0</ele>
        <time>2019-07-05T06:19:44Z</time>
      </trkpt>
      <trkpt lat="39.665939" lon="-5.809383">
        <ele>498.9</ele>
        <time>2019-07-05T06:19:57Z</time>
      </trkpt>
      <trkpt lat="39.665887" lon="-5.809267">
        <ele>499.0</ele>
        <time>2019-07-05T06:20:07Z</time>
      </trkpt>
      <trkpt lat="39.665802" lon="-5.809168">
        <ele>498.5</ele>
        <time>2019-07-05T06:20:19Z</time>
      </trkpt>
      <trkpt lat="39.665702" lon="-5.809102">
        <ele>498.4</ele>
        <time>2019-07-05T06:20:30Z</time>
      </trkpt>
      <trkpt lat="39.665610" lon="-5.808985">
        <ele>498.0</ele>
        <time>2019-07-05T06:20:43Z</time>
      </trkpt>
      <trkpt lat="39.665507" lon="-5.808806">
        <ele>497.4</ele>
        <time>2019-07-05T06:21:00Z</time>
      </trkpt>
      <trkpt lat="39.665416" lon="-5.808636">
        <ele>496.8</ele>
        <time>2019-07-05T06:21:16Z</time>
      </trkpt>
      <trkpt lat="39.665365" lon="-5.808503">
        <ele>497.0</ele>
        <time>2019-07-05T06:21:27Z</time>
      </trkpt>
      <trkpt lat="39.665316" lon="-5.808326">
        <ele>496.3</ele>
        <time>2019-07-05T06:21:42Z</time>
      </trkpt>
      <trkpt lat="39.665265" lon="-5.808202">
        <ele>495.4</ele>
        <time>2019-07-05T06:21:53Z</time>
      </trkpt>
      <trkpt lat="39.665253" lon="-5.808122">
        <ele>496.0</ele>
        <time>2019-07-05T06:21:59Z</time>
      </trkpt>
      <trkpt lat="39.665304" lon="-5.807985">
        <ele>497.8</ele>
        <time>2019-07-05T06:22:11Z</time>
      </trkpt>
      <trkpt lat="39.665314" lon="-5.807845">
        <ele>498.1</ele>
        <time>2019-07-05T06:22:22Z</time>
      </trkpt>
      <trkpt lat="39.665304" lon="-5.807687">
        <ele>497.9</ele>
        <time>2019-07-05T06:22:34Z</time>
      </trkpt>
      <trkpt lat="39.665268" lon="-5.807502">
        <ele>497.5</ele>
        <time>2019-07-05T06:22:48Z</time>
      </trkpt>
      <trkpt lat="39.665232" lon="-5.807326">
        <ele>497.6</ele>
        <time>2019-07-05T06:23:03Z</time>
      </trkpt>
      <trkpt lat="39.665201" lon="-5.807185">
        <ele>498.0</ele>
        <time>2019-07-05T06:23:14Z</time>
      </trkpt>
      <trkpt lat="39.665151" lon="-5.807017">
        <ele>497.6</ele>
        <time>2019-07-05T06:23:28Z</time>
      </trkpt>
      <trkpt lat="39.665088" lon="-5.806831">
        <ele>497.1</ele>
        <time>2019-07-05T06:23:43Z</time>
      </trkpt>
      <trkpt lat="39.665045" lon="-5.806680">
        <ele>497.4</ele>
        <time>2019-07-05T06:23:56Z</time>
      </trkpt>
      <trkpt lat="39.665002" lon="-5.806478">
        <ele>496.7</ele>
        <time>2019-07-05T06:24:12Z</time>
      </trkpt>
      <trkpt lat="39.664954" lon="-5.806257">
        <ele>496.0</ele>
        <time>2019-07-05T06:24:29Z</time>
      </trkpt>
      <trkpt lat="39.664917" lon="-5.806098">
        <ele>496.2</ele>
        <time>2019-07-05T06:24:42Z</time>
      </trkpt>
      <trkpt lat="39.664874" lon="-5.805896">
        <ele>496.0</ele>
        <time>2019-07-05T06:24:58Z</time>
      </trkpt>
      <trkpt lat="39.664825" lon="-5.805701">
        <ele>495.6</ele>
        <time>2019-07-05T06:25:14Z</time>
      </trkpt>
      <trkpt lat="39.664782" lon="-5.805542">
        <ele>494.8</ele>
        <time>2019-07-05T06:25:27Z</time>
      </trkpt>
      <trkpt lat="39.664738" lon="-5.805374">
        <ele>494.1</ele>
        <time>2019-07-05T06:25:41Z</time>
      </trkpt>
      <trkpt lat="39.664701" lon="-5.805250">
        <ele>494.0</ele>
        <time>2019-07-05T06:25:51Z</time>
      </trkpt>
      <trkpt lat="39.664676" lon="-5.805153">
        <ele>494.0</ele>
        <time>2019-07-05T06:25:59Z</time>
      </trkpt>
      <trkpt lat="39.664686" lon="-5.805031">
        <ele>494.2</ele>
        <time>2019-07-05T06:26:08Z</time>
      </trkpt>
      <trkpt lat="39.664689" lon="-5.804891">
        <ele>495.0</ele>
        <time>2019-07-05T06:26:19Z</time>
      </trkpt>
      <trkpt lat="39.664714" lon="-5.804691">
        <ele>495.9</ele>
        <time>2019-07-05T06:26:35Z</time>
      </trkpt>
      <trkpt lat="39.664732" lon="-5.804517">
        <ele>496.0</ele>
        <time>2019-07-05T06:26:48Z</time>
      </trkpt>
      <trkpt lat="39.664757" lon="-5.804343">
        <ele>497.0</ele>
        <time>2019-07-05T06:27:02Z</time>
      </trkpt>
      <trkpt lat="39.664781" lon="-5.804152">
        <ele>497.0</ele>
        <time>2019-07-05T06:27:17Z</time>
      </trkpt>
      <trkpt lat="39.664834" lon="-5.803927">
        <ele>498.0</ele>
        <time>2019-07-05T06:27:35Z</time>
      </trkpt>
      <trkpt lat="39.664908" lon="-5.803650">
        <ele>499.0</ele>
        <time>2019-07-05T06:27:57Z</time>
      </trkpt>
      <trkpt lat="39.664966" lon="-5.803504">
        <ele>500.0</ele>
        <time>2019-07-05T06:28:10Z</time>
      </trkpt>
      <trkpt lat="39.665037" lon="-5.803376">
        <ele>501.3</ele>
        <time>2019-07-05T06:28:22Z</time>
      </trkpt>
      <trkpt lat="39.665163" lon="-5.803197">
        <ele>503.4</ele>
        <time>2019-07-05T06:28:41Z</time>
      </trkpt>
      <trkpt lat="39.665233" lon="-5.803069">
        <ele>504.5</ele>
        <time>2019-07-05T06:28:53Z</time>
      </trkpt>
      <trkpt lat="39.665319" lon="-5.802889">
        <ele>506.0</ele>
        <time>2019-07-05T06:29:09Z</time>
      </trkpt>
      <trkpt lat="39.665391" lon="-5.802682">
        <ele>507.0</ele>
        <time>2019-07-05T06:29:27Z</time>
      </trkpt>
      <trkpt lat="39.665450" lon="-5.802483">
        <ele>508.4</ele>
        <time>2019-07-05T06:29:43Z</time>
      </trkpt>
      <trkpt lat="39.665502" lon="-5.802302">
        <ele>510.3</ele>
        <time>2019-07-05T06:29:58Z</time>
      </trkpt>
      <trkpt lat="39.665576" lon="-5.802025">
        <ele>511.6</ele>
        <time>2019-07-05T06:30:21Z</time>
      </trkpt>
      <trkpt lat="39.665629" lon="-5.801800">
        <ele>512.5</ele>
        <time>2019-07-05T06:30:39Z</time>
      </trkpt>
      <trkpt lat="39.665681" lon="-5.801601">
        <ele>513.4</ele>
        <time>2019-07-05T06:30:55Z</time>
      </trkpt>
      <trkpt lat="39.665733" lon="-5.801411">
        <ele>514.3</ele>
        <time>2019-07-05T06:31:11Z</time>
      </trkpt>
      <trkpt lat="39.665770" lon="-5.801255">
        <ele>515.0</ele>
        <time>2019-07-05T06:31:23Z</time>
      </trkpt>
      <trkpt lat="39.665808" lon="-5.801090">
        <ele>516.6</ele>
        <time>2019-07-05T06:31:37Z</time>
      </trkpt>
      <trkpt lat="39.665839" lon="-5.800934">
        <ele>517.2</ele>
        <time>2019-07-05T06:31:49Z</time>
      </trkpt>
      <trkpt lat="39.665876" lon="-5.800778">
        <ele>518.2</ele>
        <time>2019-07-05T06:32:02Z</time>
      </trkpt>
      <trkpt lat="39.665912" lon="-5.800692">
        <ele>519.4</ele>
        <time>2019-07-05T06:32:09Z</time>
      </trkpt>
      <trkpt lat="39.665954" lon="-5.800624">
        <ele>520.2</ele>
        <time>2019-07-05T06:32:16Z</time>
      </trkpt>
      <trkpt lat="39.665983" lon="-5.800538">
        <ele>520.7</ele>
        <time>2019-07-05T06:32:23Z</time>
      </trkpt>
      <trkpt lat="39.666013" lon="-5.800452">
        <ele>521.4</ele>
        <time>2019-07-05T06:32:30Z</time>
      </trkpt>
      <trkpt lat="39.666041" lon="-5.800383">
        <ele>522.4</ele>
        <time>2019-07-05T06:32:37Z</time>
      </trkpt>
      <trkpt lat="39.666051" lon="-5.800278">
        <ele>522.8</ele>
        <time>2019-07-05T06:32:45Z</time>
      </trkpt>
      <trkpt lat="39.666054" lon="-5.800156">
        <ele>523.8</ele>
        <time>2019-07-05T06:32:54Z</time>
      </trkpt>
      <trkpt lat="39.666064" lon="-5.800017">
        <ele>524.1</ele>
        <time>2019-07-05T06:33:05Z</time>
      </trkpt>
      <trkpt lat="39.666059" lon="-5.799938">
        <ele>524.0</ele>
        <time>2019-07-05T06:33:11Z</time>
      </trkpt>
      <trkpt lat="39.666068" lon="-5.799842">
        <ele>524.1</ele>
        <time>2019-07-05T06:33:18Z</time>
      </trkpt>
      <trkpt lat="39.666084" lon="-5.799746">
        <ele>524.4</ele>
        <time>2019-07-05T06:33:26Z</time>
      </trkpt>
      <trkpt lat="39.666093" lon="-5.799624">
        <ele>525.6</ele>
        <time>2019-07-05T06:33:35Z</time>
      </trkpt>
      <trkpt lat="39.666090" lon="-5.799484">
        <ele>525.5</ele>
        <time>2019-07-05T06:33:46Z</time>
      </trkpt>
      <trkpt lat="39.666107" lon="-5.799354">
        <ele>526.8</ele>
        <time>2019-07-05T06:33:56Z</time>
      </trkpt>
      <trkpt lat="39.666116" lon="-5.799267">
        <ele>527.0</ele>
        <time>2019-07-05T06:34:03Z</time>
      </trkpt>
      <trkpt lat="39.666104" lon="-5.799170">
        <ele>527.0</ele>
        <time>2019-07-05T06:34:11Z</time>
      </trkpt>
      <trkpt lat="39.666079" lon="-5.799082">
        <ele>527.3</ele>
        <time>2019-07-05T06:34:18Z</time>
      </trkpt>
      <trkpt lat="39.666048" lon="-5.799002">
        <ele>528.0</ele>
        <time>2019-07-05T06:34:25Z</time>
      </trkpt>
      <trkpt lat="39.666009" lon="-5.798930">
        <ele>529.0</ele>
        <time>2019-07-05T06:34:32Z</time>
      </trkpt>
      <trkpt lat="39.665950" lon="-5.798841">
        <ele>530.1</ele>
        <time>2019-07-05T06:34:41Z</time>
      </trkpt>
      <trkpt lat="39.665938" lon="-5.798788">
        <ele>531.2</ele>
        <time>2019-07-05T06:34:45Z</time>
      </trkpt>
      <trkpt lat="39.665974" lon="-5.798710">
        <ele>531.5</ele>
        <time>2019-07-05T06:34:52Z</time>
      </trkpt>
      <trkpt lat="39.666044" lon="-5.798608">
        <ele>532.4</ele>
        <time>2019-07-05T06:35:03Z</time>
      </trkpt>
      <trkpt lat="39.666093" lon="-5.798506">
        <ele>534.0</ele>
        <time>2019-07-05T06:35:12Z</time>
      </trkpt>
      <trkpt lat="39.666138" lon="-5.798350">
        <ele>536.7</ele>
        <time>2019-07-05T06:35:25Z</time>
      </trkpt>
      <trkpt lat="39.666161" lon="-5.798211">
        <ele>537.6</ele>
        <time>2019-07-05T06:35:36Z</time>
      </trkpt>
      <trkpt lat="39.666193" lon="-5.798037">
        <ele>540.4</ele>
        <time>2019-07-05T06:35:50Z</time>
      </trkpt>
      <trkpt lat="39.666244" lon="-5.797865">
        <ele>543.0</ele>
        <time>2019-07-05T06:36:04Z</time>
      </trkpt>
      <trkpt lat="39.666287" lon="-5.797761">
        <ele>543.4</ele>
        <time>2019-07-05T06:36:13Z</time>
      </trkpt>
      <trkpt lat="39.666349" lon="-5.797703">
        <ele>544.6</ele>
        <time>2019-07-05T06:36:21Z</time>
      </trkpt>
      <trkpt lat="39.666466" lon="-5.797638">
        <ele>545.0</ele>
        <time>2019-07-05T06:36:34Z</time>
      </trkpt>
      <trkpt lat="39.666555" lon="-5.797571">
        <ele>546.5</ele>
        <time>2019-07-05T06:36:44Z</time>
      </trkpt>
      <trkpt lat="39.666665" lon="-5.797479">
        <ele>548.2</ele>
        <time>2019-07-05T06:36:57Z</time>
      </trkpt>
      <trkpt lat="39.666782" lon="-5.797397">
        <ele>550.2</ele>
        <time>2019-07-05T06:37:11Z</time>
      </trkpt>
      <trkpt lat="39.666872" lon="-5.797304">
        <ele>551.3</ele>
        <time>2019-07-05T06:37:22Z</time>
      </trkpt>
      <trkpt lat="39.666951" lon="-5.797141">
        <ele>553.7</ele>
        <time>2019-07-05T06:37:37Z</time>
      </trkpt>
      <trkpt lat="39.667007" lon="-5.797030">
        <ele>554.1</ele>
        <time>2019-07-05T06:37:47Z</time>
      </trkpt>
      <trkpt lat="39.667140" lon="-5.796869">
        <ele>555.5</ele>
        <time>2019-07-05T06:38:06Z</time>
      </trkpt>
      <trkpt lat="39.667286" lon="-5.796674">
        <ele>557.0</ele>
        <time>2019-07-05T06:38:27Z</time>
      </trkpt>
      <trkpt lat="39.667411" lon="-5.796522">
        <ele>557.4</ele>
        <time>2019-07-05T06:38:44Z</time>
      </trkpt>
      <trkpt lat="39.667530" lon="-5.796352">
        <ele>558.0</ele>
        <time>2019-07-05T06:39:01Z</time>
      </trkpt>
      <trkpt lat="39.667677" lon="-5.796157">
        <ele>558.0</ele>
        <time>2019-07-05T06:39:22Z</time>
      </trkpt>
      <trkpt lat="39.667803" lon="-5.795987">
        <ele>559.0</ele>
        <time>2019-07-05T06:39:41Z</time>
      </trkpt>
      <trkpt lat="39.667942" lon="-5.795791">
        <ele>559.0</ele>
        <time>2019-07-05T06:40:01Z</time>
      </trkpt>
      <trkpt lat="39.668110" lon="-5.795553">
        <ele>560.0</ele>
        <time>2019-07-05T06:40:26Z</time>
      </trkpt>
      <trkpt lat="39.668299" lon="-5.795290">
        <ele>560.0</ele>
        <time>2019-07-05T06:40:54Z</time>
      </trkpt>
      <trkpt lat="39.668418" lon="-5.795111">
        <ele>560.0</ele>
        <time>2019-07-05T06:41:12Z</time>
      </trkpt>
      <trkpt lat="39.668509" lon="-5.794984">
        <ele>560.5</ele>
        <time>2019-07-05T06:41:25Z</time>
      </trkpt>
      <trkpt lat="39.668628" lon="-5.794796">
        <ele>561.0</ele>
        <time>2019-07-05T06:41:44Z</time>
      </trkpt>
      <trkpt lat="39.668784" lon="-5.794523">
        <ele>561.0</ele>
        <time>2019-07-05T06:42:10Z</time>
      </trkpt>
      <trkpt lat="39.668904" lon="-5.794283">
        <ele>561.0</ele>
        <time>2019-07-05T06:42:32Z</time>
      </trkpt>
      <trkpt lat="39.669046" lon="-5.794009">
        <ele>561.0</ele>
        <time>2019-07-05T06:42:57Z</time>
      </trkpt>
      <trkpt lat="39.669180" lon="-5.793778">
        <ele>561.0</ele>
        <time>2019-07-05T06:43:20Z</time>
      </trkpt>
      <trkpt lat="39.669306" lon="-5.793608">
        <ele>561.0</ele>
        <time>2019-07-05T06:43:38Z</time>
      </trkpt>
      <trkpt lat="39.669444" lon="-5.793465">
        <ele>561.0</ele>
        <time>2019-07-05T06:43:55Z</time>
      </trkpt>
      <trkpt lat="39.669610" lon="-5.793315">
        <ele>561.0</ele>
        <time>2019-07-05T06:44:16Z</time>
      </trkpt>
      <trkpt lat="39.669762" lon="-5.793181">
        <ele>560.0</ele>
        <time>2019-07-05T06:44:34Z</time>
      </trkpt>
      <trkpt lat="39.669866" lon="-5.793063">
        <ele>560.2</ele>
        <time>2019-07-05T06:44:48Z</time>
      </trkpt>
      <trkpt lat="39.669979" lon="-5.792849">
        <ele>561.0</ele>
        <time>2019-07-05T06:45:08Z</time>
      </trkpt>
      <trkpt lat="39.670086" lon="-5.792652">
        <ele>560.0</ele>
        <time>2019-07-05T06:45:26Z</time>
      </trkpt>
      <trkpt lat="39.670213" lon="-5.792404">
        <ele>561.0</ele>
        <time>2019-07-05T06:45:49Z</time>
      </trkpt>
      <trkpt lat="39.670334" lon="-5.792155">
        <ele>560.6</ele>
        <time>2019-07-05T06:46:12Z</time>
      </trkpt>
      <trkpt lat="39.670447" lon="-5.791950">
        <ele>560.0</ele>
        <time>2019-07-05T06:46:31Z</time>
      </trkpt>
      <trkpt lat="39.670560" lon="-5.791744">
        <ele>560.0</ele>
        <time>2019-07-05T06:46:51Z</time>
      </trkpt>
      <trkpt lat="39.670679" lon="-5.791574">
        <ele>560.0</ele>
        <time>2019-07-05T06:47:08Z</time>
      </trkpt>
      <trkpt lat="39.670805" lon="-5.791404">
        <ele>560.0</ele>
        <time>2019-07-05T06:47:26Z</time>
      </trkpt>
      <trkpt lat="39.670903" lon="-5.791251">
        <ele>560.0</ele>
        <time>2019-07-05T06:47:42Z</time>
      </trkpt>
      <trkpt lat="39.671015" lon="-5.791089">
        <ele>560.0</ele>
        <time>2019-07-05T06:47:58Z</time>
      </trkpt>
      <trkpt lat="39.671126" lon="-5.790963">
        <ele>560.0</ele>
        <time>2019-07-05T06:48:13Z</time>
      </trkpt>
      <trkpt lat="39.671251" lon="-5.790810">
        <ele>560.0</ele>
        <time>2019-07-05T06:48:30Z</time>
      </trkpt>
      <trkpt lat="39.671362" lon="-5.790684">
        <ele>560.0</ele>
        <time>2019-07-05T06:48:45Z</time>
      </trkpt>
      <trkpt lat="39.671495" lon="-5.790506">
        <ele>560.0</ele>
        <time>2019-07-05T06:49:04Z</time>
      </trkpt>
      <trkpt lat="39.671621" lon="-5.790318">
        <ele>560.0</ele>
        <time>2019-07-05T06:49:23Z</time>
      </trkpt>
      <trkpt lat="39.671748" lon="-5.790113">
        <ele>560.0</ele>
        <time>2019-07-05T06:49:43Z</time>
      </trkpt>
      <trkpt lat="39.671868" lon="-5.789900">
        <ele>560.7</ele>
        <time>2019-07-05T06:50:04Z</time>
      </trkpt>
      <trkpt lat="39.671981" lon="-5.789695">
        <ele>560.0</ele>
        <time>2019-07-05T06:50:23Z</time>
      </trkpt>
      <trkpt lat="39.672129" lon="-5.789438">
        <ele>561.0</ele>
        <time>2019-07-05T06:50:48Z</time>
      </trkpt>
      <trkpt lat="39.672241" lon="-5.789259">
        <ele>561.0</ele>
        <time>2019-07-05T06:51:06Z</time>
      </trkpt>
      <trkpt lat="39.672375" lon="-5.789046">
        <ele>561.0</ele>
        <time>2019-07-05T06:51:27Z</time>
      </trkpt>
      <trkpt lat="39.672508" lon="-5.788824">
        <ele>561.0</ele>
        <time>2019-07-05T06:51:48Z</time>
      </trkpt>
      <trkpt lat="39.672642" lon="-5.788628">
        <ele>561.5</ele>
        <time>2019-07-05T06:52:09Z</time>
      </trkpt>
      <trkpt lat="39.672774" lon="-5.788459">
        <ele>561.3</ele>
        <time>2019-07-05T06:52:27Z</time>
      </trkpt>
      <trkpt lat="39.672920" lon="-5.788272">
        <ele>562.0</ele>
        <time>2019-07-05T06:52:48Z</time>
      </trkpt>
      <trkpt lat="39.673058" lon="-5.788155">
        <ele>562.0</ele>
        <time>2019-07-05T06:53:04Z</time>
      </trkpt>
      <trkpt lat="39.673110" lon="-5.788254">
        <ele>562.5</ele>
        <time>2019-07-05T06:53:13Z</time>
      </trkpt>
      <trkpt lat="39.673188" lon="-5.788397">
        <ele>562.7</ele>
        <time>2019-07-05T06:53:27Z</time>
      </trkpt>
      <trkpt lat="39.673231" lon="-5.788573">
        <ele>562.0</ele>
        <time>2019-07-05T06:53:41Z</time>
      </trkpt>
      <trkpt lat="39.673305" lon="-5.788865">
        <ele>562.0</ele>
        <time>2019-07-05T06:54:05Z</time>
      </trkpt>
      <trkpt lat="39.673403" lon="-5.789271">
        <ele>561.2</ele>
        <time>2019-07-05T06:54:37Z</time>
      </trkpt>
      <trkpt lat="39.673494" lon="-5.789703">
        <ele>562.0</ele>
        <time>2019-07-05T06:55:12Z</time>
      </trkpt>
      <trkpt lat="39.673592" lon="-5.790118">
        <ele>562.0</ele>
        <time>2019-07-05T06:55:45Z</time>
      </trkpt>
      <trkpt lat="39.673666" lon="-5.790418">
        <ele>561.0</ele>
        <time>2019-07-05T06:56:09Z</time>
      </trkpt>
      <trkpt lat="39.673715" lon="-5.790647">
        <ele>561.0</ele>
        <time>2019-07-05T06:56:28Z</time>
      </trkpt>
      <trkpt lat="39.673764" lon="-5.790859">
        <ele>561.0</ele>
        <time>2019-07-05T06:56:45Z</time>
      </trkpt>
      <trkpt lat="39.673837" lon="-5.791177">
        <ele>561.0</ele>
        <time>2019-07-05T06:57:10Z</time>
      </trkpt>
      <trkpt lat="39.673929" lon="-5.791565">
        <ele>561.0</ele>
        <time>2019-07-05T06:57:41Z</time>
      </trkpt>
      <trkpt lat="39.674021" lon="-5.791954">
        <ele>561.0</ele>
        <time>2019-07-05T06:58:13Z</time>
      </trkpt>
      <trkpt lat="39.674100" lon="-5.792333">
        <ele>561.0</ele>
        <time>2019-07-05T06:58:43Z</time>
      </trkpt>
      <trkpt lat="39.674185" lon="-5.792703">
        <ele>561.0</ele>
        <time>2019-07-05T06:59:13Z</time>
      </trkpt>
      <trkpt lat="39.674289" lon="-5.793171">
        <ele>561.0</ele>
        <time>2019-07-05T06:59:50Z</time>
      </trkpt>
      <trkpt lat="39.674381" lon="-5.793568">
        <ele>561.0</ele>
        <time>2019-07-05T07:00:22Z</time>
      </trkpt>
      <trkpt lat="39.674491" lon="-5.794045">
        <ele>561.0</ele>
        <time>2019-07-05T07:01:00Z</time>
      </trkpt>
      <trkpt lat="39.674595" lon="-5.794486">
        <ele>561.0</ele>
        <time>2019-07-05T07:01:36Z</time>
      </trkpt>
      <trkpt lat="39.674718" lon="-5.795016">
        <ele>560.0</ele>
        <time>2019-07-05T07:02:18Z</time>
      </trkpt>
      <trkpt lat="39.674809" lon="-5.795430">
        <ele>560.0</ele>
        <time>2019-07-05T07:02:51Z</time>
      </trkpt>
      <trkpt lat="39.674919" lon="-5.795915">
        <ele>560.0</ele>
        <time>2019-07-05T07:03:30Z</time>
      </trkpt>
      <trkpt lat="39.674979" lon="-5.796198">
        <ele>560.0</ele>
        <time>2019-07-05T07:03:53Z</time>
      </trkpt>
      <trkpt lat="39.675047" lon="-5.796480">
        <ele>560.0</ele>
        <time>2019-07-05T07:04:15Z</time>
      </trkpt>
      <trkpt lat="39.675126" lon="-5.796842">
        <ele>560.0</ele>
        <time>2019-07-05T07:04:44Z</time>
      </trkpt>
      <trkpt lat="39.675236" lon="-5.797336">
        <ele>559.0</ele>
        <time>2019-07-05T07:05:24Z</time>
      </trkpt>
      <trkpt lat="39.675370" lon="-5.797927">
        <ele>559.0</ele>
        <time>2019-07-05T07:06:11Z</time>
      </trkpt>
      <trkpt lat="39.675455" lon="-5.798324">
        <ele>559.0</ele>
        <time>2019-07-05T07:06:43Z</time>
      </trkpt>
      <trkpt lat="39.675528" lon="-5.798650">
        <ele>559.0</ele>
        <time>2019-07-05T07:07:09Z</time>
      </trkpt>
      <trkpt lat="39.675608" lon="-5.799012">
        <ele>559.0</ele>
        <time>2019-07-05T07:07:38Z</time>
      </trkpt>
      <trkpt lat="39.675674" lon="-5.799338">
        <ele>558.0</ele>
        <time>2019-07-05T07:08:04Z</time>
      </trkpt>
      <trkpt lat="39.675772" lon="-5.799762">
        <ele>558.0</ele>
        <time>2019-07-05T07:08:38Z</time>
      </trkpt>
      <trkpt lat="39.675864" lon="-5.800142">
        <ele>558.0</ele>
        <time>2019-07-05T07:09:09Z</time>
      </trkpt>
      <trkpt lat="39.675944" lon="-5.800486">
        <ele>558.0</ele>
        <time>2019-07-05T07:09:36Z</time>
      </trkpt>
      <trkpt lat="39.676011" lon="-5.800759">
        <ele>558.0</ele>
        <time>2019-07-05T07:09:58Z</time>
      </trkpt>
      <trkpt lat="39.676047" lon="-5.800945">
        <ele>558.0</ele>
        <time>2019-07-05T07:10:13Z</time>
      </trkpt>
      <trkpt lat="39.675771" lon="-5.801222">
        <ele>558.0</ele>
        <time>2019-07-05T07:10:48Z</time>
      </trkpt>
      <trkpt lat="39.675534" lon="-5.801483">
        <ele>558.0</ele>
        <time>2019-07-05T07:11:19Z</time>
      </trkpt>
      <trkpt lat="39.675313" lon="-5.801693">
        <ele>557.5</ele>
        <time>2019-07-05T07:11:46Z</time>
      </trkpt>
      <trkpt lat="39.675092" lon="-5.801920">
        <ele>557.0</ele>
        <time>2019-07-05T07:12:14Z</time>
      </trkpt>
      <trkpt lat="39.674898" lon="-5.802113">
        <ele>556.1</ele>
        <time>2019-07-05T07:12:39Z</time>
      </trkpt>
      <trkpt lat="39.674766" lon="-5.802239">
        <ele>555.7</ele>
        <time>2019-07-05T07:12:55Z</time>
      </trkpt>
      <trkpt lat="39.674715" lon="-5.802296">
        <ele>553.6</ele>
        <time>2019-07-05T07:13:02Z</time>
      </trkpt>
      <trkpt lat="39.674662" lon="-5.802355">
        <ele>553.0</ele>
        <time>2019-07-05T07:13:09Z</time>
      </trkpt>
      <trkpt lat="39.674614" lon="-5.802402">
        <ele>554.6</ele>
        <time>2019-07-05T07:13:15Z</time>
      </trkpt>
      <trkpt lat="39.674549" lon="-5.802467">
        <ele>556.0</ele>
        <time>2019-07-05T07:13:24Z</time>
      </trkpt>
      <trkpt lat="39.674478" lon="-5.802534">
        <ele>556.0</ele>
        <time>2019-07-05T07:13:32Z</time>
      </trkpt>
      <trkpt lat="39.674394" lon="-5.802623">
        <ele>556.8</ele>
        <time>2019-07-05T07:13:43Z</time>
      </trkpt>
      <trkpt lat="39.674318" lon="-5.802705">
        <ele>557.0</ele>
        <time>2019-07-05T07:13:53Z</time>
      </trkpt>
      <trkpt lat="39.674219" lon="-5.802809">
        <ele>557.0</ele>
        <time>2019-07-05T07:14:06Z</time>
      </trkpt>
      <trkpt lat="39.674140" lon="-5.802893">
        <ele>557.0</ele>
        <time>2019-07-05T07:14:16Z</time>
      </trkpt>
      <trkpt lat="39.674061" lon="-5.802980">
        <ele>557.0</ele>
        <time>2019-07-05T07:14:26Z</time>
      </trkpt>
      <trkpt lat="39.673962" lon="-5.803075">
        <ele>557.0</ele>
        <time>2019-07-05T07:14:39Z</time>
      </trkpt>
      <trkpt lat="39.673877" lon="-5.803168">
        <ele>557.0</ele>
        <time>2019-07-05T07:14:50Z</time>
      </trkpt>
      <trkpt lat="39.673787" lon="-5.803255">
        <ele>557.0</ele>
        <time>2019-07-05T07:15:01Z</time>
      </trkpt>
      <trkpt lat="39.673685" lon="-5.803358">
        <ele>557.0</ele>
        <time>2019-07-05T07:15:14Z</time>
      </trkpt>
      <trkpt lat="39.673595" lon="-5.803445">
        <ele>557.0</ele>
        <time>2019-07-05T07:15:25Z</time>
      </trkpt>
      <trkpt lat="39.673491" lon="-5.803557">
        <ele>557.8</ele>
        <time>2019-07-05T07:15:39Z</time>
      </trkpt>
      <trkpt lat="39.673387" lon="-5.803670">
        <ele>558.0</ele>
        <time>2019-07-05T07:15:52Z</time>
      </trkpt>
      <trkpt lat="39.673295" lon="-5.803765">
        <ele>558.0</ele>
        <time>2019-07-05T07:16:04Z</time>
      </trkpt>
      <trkpt lat="39.673209" lon="-5.803852">
        <ele>558.0</ele>
        <time>2019-07-05T07:16:15Z</time>
      </trkpt>
      <trkpt lat="39.673110" lon="-5.803956">
        <ele>558.0</ele>
        <time>2019-07-05T07:16:27Z</time>
      </trkpt>
      <trkpt lat="39.673015" lon="-5.804048">
        <ele>558.0</ele>
        <time>2019-07-05T07:16:39Z</time>
      </trkpt>
      <trkpt lat="39.672930" lon="-5.804144">
        <ele>558.0</ele>
        <time>2019-07-05T07:16:50Z</time>
      </trkpt>
      <trkpt lat="39.672852" lon="-5.804210">
        <ele>558.0</ele>
        <time>2019-07-05T07:17:00Z</time>
      </trkpt>
      <trkpt lat="39.672766" lon="-5.804306">
        <ele>558.0</ele>
        <time>2019-07-05T07:17:11Z</time>
      </trkpt>
      <trkpt lat="39.672681" lon="-5.804390">
        <ele>558.0</ele>
        <time>2019-07-05T07:17:22Z</time>
      </trkpt>
      <trkpt lat="39.672579" lon="-5.804503">
        <ele>558.0</ele>
        <time>2019-07-05T07:17:35Z</time>
      </trkpt>
      <trkpt lat="39.672477" lon="-5.804609">
        <ele>558.0</ele>
        <time>2019-07-05T07:17:48Z</time>
      </trkpt>
      <trkpt lat="39.672376" lon="-5.804707">
        <ele>558.0</ele>
        <time>2019-07-05T07:18:01Z</time>
      </trkpt>
      <trkpt lat="39.672278" lon="-5.804817">
        <ele>558.0</ele>
        <time>2019-07-05T07:18:14Z</time>
      </trkpt>
      <trkpt lat="39.672189" lon="-5.804901">
        <ele>558.0</ele>
        <time>2019-07-05T07:18:25Z</time>
      </trkpt>
      <trkpt lat="39.672103" lon="-5.804990">
        <ele>558.0</ele>
        <time>2019-07-05T07:18:36Z</time>
      </trkpt>
      <trkpt lat="39.672006" lon="-5.805086">
        <ele>559.0</ele>
        <time>2019-07-05T07:18:48Z</time>
      </trkpt>
      <trkpt lat="39.671904" lon="-5.805192">
        <ele>559.0</ele>
        <time>2019-07-05T07:19:01Z</time>
      </trkpt>
      <trkpt lat="39.671853" lon="-5.805254">
        <ele>559.0</ele>
        <time>2019-07-05T07:19:08Z</time>
      </trkpt>
      <trkpt lat="39.671862" lon="-5.805295">
        <ele>559.0</ele>
        <time>2019-07-05T07:19:11Z</time>
      </trkpt>
      <trkpt lat="39.671874" lon="-5.805337">
        <ele>559.0</ele>
        <time>2019-07-05T07:19:15Z</time>
      </trkpt>
      <trkpt lat="39.671875" lon="-5.805389">
        <ele>559.0</ele>
        <time>2019-07-05T07:19:19Z</time>
      </trkpt>
      <trkpt lat="39.671860" lon="-5.805435">
        <ele>559.0</ele>
        <time>2019-07-05T07:19:22Z</time>
      </trkpt>
      <trkpt lat="39.671839" lon="-5.805487">
        <ele>559.0</ele>
        <time>2019-07-05T07:19:27Z</time>
      </trkpt>
      <trkpt lat="39.671810" lon="-5.805544">
        <ele>559.0</ele>
        <time>2019-07-05T07:19:32Z</time>
      </trkpt>
      <trkpt lat="39.671765" lon="-5.805656">
        <ele>559.0</ele>
        <time>2019-07-05T07:19:42Z</time>
      </trkpt>
      <trkpt lat="39.671735" lon="-5.805757">
        <ele>559.0</ele>
        <time>2019-07-05T07:19:50Z</time>
      </trkpt>
      <trkpt lat="39.671720" lon="-5.805838">
        <ele>559.0</ele>
        <time>2019-07-05T07:19:57Z</time>
      </trkpt>
      <trkpt lat="39.671707" lon="-5.805924">
        <ele>559.0</ele>
        <time>2019-07-05T07:20:03Z</time>
      </trkpt>
      <trkpt lat="39.671707" lon="-5.806018">
        <ele>559.0</ele>
        <time>2019-07-05T07:20:11Z</time>
      </trkpt>
      <trkpt lat="39.671709" lon="-5.806099">
        <ele>560.0</ele>
        <time>2019-07-05T07:20:17Z</time>
      </trkpt>
      <trkpt lat="39.671713" lon="-5.806207">
        <ele>560.0</ele>
        <time>2019-07-05T07:20:25Z</time>
      </trkpt>
      <trkpt lat="39.671715" lon="-5.806341">
        <ele>560.0</ele>
        <time>2019-07-05T07:20:36Z</time>
      </trkpt>
      <trkpt lat="39.671712" lon="-5.806446">
        <ele>559.8</ele>
        <time>2019-07-05T07:20:44Z</time>
      </trkpt>
      <trkpt lat="39.671714" lon="-5.806534">
        <ele>559.0</ele>
        <time>2019-07-05T07:20:50Z</time>
      </trkpt>
      <trkpt lat="39.671719" lon="-5.806627">
        <ele>559.1</ele>
        <time>2019-07-05T07:20:58Z</time>
      </trkpt>
      <trkpt lat="39.671859" lon="-5.806613">
        <ele>559.0</ele>
        <time>2019-07-05T07:21:12Z</time>
      </trkpt>
      <trkpt lat="39.671857" lon="-5.806610">
        <ele>559.0</ele>
        <time>2019-07-05T07:21:12Z</time>
      </trkpt>
      <trkpt lat="39.671931" lon="-5.806604">
        <ele>559.0</ele>
        <time>2019-07-05T07:21:19Z</time>
      </trkpt>
      <trkpt lat="39.672040" lon="-5.806573">
        <ele>559.0</ele>
        <time>2019-07-05T07:21:31Z</time>
      </trkpt>
      <trkpt lat="39.672176" lon="-5.806544">
        <ele>559.0</ele>
        <time>2019-07-05T07:21:44Z</time>
      </trkpt>
      <trkpt lat="39.672325" lon="-5.806506">
        <ele>559.0</ele>
        <time>2019-07-05T07:21:59Z</time>
      </trkpt>
      <trkpt lat="39.672448" lon="-5.806476">
        <ele>559.0</ele>
        <time>2019-07-05T07:22:12Z</time>
      </trkpt>
      <trkpt lat="39.672598" lon="-5.806412">
        <ele>558.6</ele>
        <time>2019-07-05T07:22:28Z</time>
      </trkpt>
      <trkpt lat="39.672721" lon="-5.806365">
        <ele>558.0</ele>
        <time>2019-07-05T07:22:41Z</time>
      </trkpt>
      <trkpt lat="39.672809" lon="-5.806333">
        <ele>558.0</ele>
        <time>2019-07-05T07:22:50Z</time>
      </trkpt>
      <trkpt lat="39.672980" lon="-5.806253">
        <ele>558.0</ele>
        <time>2019-07-05T07:23:08Z</time>
      </trkpt>
      <trkpt lat="39.673103" lon="-5.806197">
        <ele>558.0</ele>
        <time>2019-07-05T07:23:21Z</time>
      </trkpt>
      <trkpt lat="39.673254" lon="-5.806106">
        <ele>558.0</ele>
        <time>2019-07-05T07:23:37Z</time>
      </trkpt>
      <trkpt lat="39.673418" lon="-5.806026">
        <ele>557.3</ele>
        <time>2019-07-05T07:23:55Z</time>
      </trkpt>
      <trkpt lat="39.673589" lon="-5.805954">
        <ele>558.0</ele>
        <time>2019-07-05T07:24:13Z</time>
      </trkpt>
      <trkpt lat="39.673759" lon="-5.805882">
        <ele>557.0</ele>
        <time>2019-07-05T07:24:31Z</time>
      </trkpt>
      <trkpt lat="39.673910" lon="-5.805810">
        <ele>557.0</ele>
        <time>2019-07-05T07:24:47Z</time>
      </trkpt>
      <trkpt lat="39.674053" lon="-5.805737">
        <ele>557.0</ele>
        <time>2019-07-05T07:25:02Z</time>
      </trkpt>
      <trkpt lat="39.674183" lon="-5.805663">
        <ele>556.1</ele>
        <time>2019-07-05T07:25:16Z</time>
      </trkpt>
      <trkpt lat="39.674300" lon="-5.805598">
        <ele>556.0</ele>
        <time>2019-07-05T07:25:29Z</time>
      </trkpt>
      <trkpt lat="39.674430" lon="-5.805525">
        <ele>556.0</ele>
        <time>2019-07-05T07:25:43Z</time>
      </trkpt>
      <trkpt lat="39.674581" lon="-5.805443">
        <ele>556.0</ele>
        <time>2019-07-05T07:26:00Z</time>
      </trkpt>
      <trkpt lat="39.674717" lon="-5.805388">
        <ele>555.0</ele>
        <time>2019-07-05T07:26:14Z</time>
      </trkpt>
      <trkpt lat="39.674827" lon="-5.805322">
        <ele>555.0</ele>
        <time>2019-07-05T07:26:26Z</time>
      </trkpt>
      <trkpt lat="39.674896" lon="-5.805264">
        <ele>554.8</ele>
        <time>2019-07-05T07:26:34Z</time>
      </trkpt>
      <trkpt lat="39.674937" lon="-5.805230">
        <ele>554.0</ele>
        <time>2019-07-05T07:26:39Z</time>
      </trkpt>
      <trkpt lat="39.675019" lon="-5.805181">
        <ele>553.7</ele>
        <time>2019-07-05T07:26:48Z</time>
      </trkpt>
      <trkpt lat="39.675115" lon="-5.805133">
        <ele>553.0</ele>
        <time>2019-07-05T07:26:58Z</time>
      </trkpt>
      <trkpt lat="39.675204" lon="-5.805110">
        <ele>551.4</ele>
        <time>2019-07-05T07:27:08Z</time>
      </trkpt>
      <trkpt lat="39.675298" lon="-5.805114">
        <ele>549.9</ele>
        <time>2019-07-05T07:27:17Z</time>
      </trkpt>
      <trkpt lat="39.675379" lon="-5.805117">
        <ele>549.2</ele>
        <time>2019-07-05T07:27:25Z</time>
      </trkpt>
      <trkpt lat="39.675467" lon="-5.805121">
        <ele>547.9</ele>
        <time>2019-07-05T07:27:34Z</time>
      </trkpt>
      <trkpt lat="39.675534" lon="-5.805124">
        <ele>546.7</ele>
        <time>2019-07-05T07:27:41Z</time>
      </trkpt>
      <trkpt lat="39.675534" lon="-5.805124">
        <ele>546.7</ele>
        <time>2019-07-05T07:27:41Z</time>
      </trkpt>
      <trkpt lat="39.675534" lon="-5.805135">
        <ele>546.7</ele>
        <time>2019-07-05T07:27:42Z</time>
      </trkpt>
      <trkpt lat="39.675466" lon="-5.805132">
        <ele>547.9</ele>
        <time>2019-07-05T07:27:49Z</time>
      </trkpt>
      <trkpt lat="39.675379" lon="-5.805129">
        <ele>549.1</ele>
        <time>2019-07-05T07:27:57Z</time>
      </trkpt>
      <trkpt lat="39.675298" lon="-5.805125">
        <ele>549.9</ele>
        <time>2019-07-05T07:28:06Z</time>
      </trkpt>
      <trkpt lat="39.675203" lon="-5.805122">
        <ele>551.4</ele>
        <time>2019-07-05T07:28:15Z</time>
      </trkpt>
      <trkpt lat="39.675115" lon="-5.805144">
        <ele>553.0</ele>
        <time>2019-07-05T07:28:24Z</time>
      </trkpt>
      <trkpt lat="39.675019" lon="-5.805193">
        <ele>553.6</ele>
        <time>2019-07-05T07:28:34Z</time>
      </trkpt>
      <trkpt lat="39.674937" lon="-5.805242">
        <ele>554.0</ele>
        <time>2019-07-05T07:28:44Z</time>
      </trkpt>
      <trkpt lat="39.674896" lon="-5.805275">
        <ele>554.8</ele>
        <time>2019-07-05T07:28:48Z</time>
      </trkpt>
      <trkpt lat="39.674827" lon="-5.805334">
        <ele>555.0</ele>
        <time>2019-07-05T07:28:57Z</time>
      </trkpt>
      <trkpt lat="39.674717" lon="-5.805399">
        <ele>555.0</ele>
        <time>2019-07-05T07:29:09Z</time>
      </trkpt>
      <trkpt lat="39.674580" lon="-5.805455">
        <ele>556.0</ele>
        <time>2019-07-05T07:29:23Z</time>
      </trkpt>
      <trkpt lat="39.674430" lon="-5.805536">
        <ele>556.0</ele>
        <time>2019-07-05T07:29:39Z</time>
      </trkpt>
      <trkpt lat="39.674300" lon="-5.805610">
        <ele>556.0</ele>
        <time>2019-07-05T07:29:54Z</time>
      </trkpt>
      <trkpt lat="39.674183" lon="-5.805675">
        <ele>556.1</ele>
        <time>2019-07-05T07:30:06Z</time>
      </trkpt>
      <trkpt lat="39.674053" lon="-5.805748">
        <ele>557.0</ele>
        <time>2019-07-05T07:30:20Z</time>
      </trkpt>
      <trkpt lat="39.673909" lon="-5.805821">
        <ele>557.0</ele>
        <time>2019-07-05T07:30:36Z</time>
      </trkpt>
      <trkpt lat="39.673759" lon="-5.805894">
        <ele>557.0</ele>
        <time>2019-07-05T07:30:52Z</time>
      </trkpt>
      <trkpt lat="39.673588" lon="-5.805966">
        <ele>558.0</ele>
        <time>2019-07-05T07:31:10Z</time>
      </trkpt>
      <trkpt lat="39.673418" lon="-5.806037">
        <ele>557.3</ele>
        <time>2019-07-05T07:31:28Z</time>
      </trkpt>
      <trkpt lat="39.673254" lon="-5.806118">
        <ele>558.0</ele>
        <time>2019-07-05T07:31:45Z</time>
      </trkpt>
      <trkpt lat="39.673103" lon="-5.806208">
        <ele>558.0</ele>
        <time>2019-07-05T07:32:02Z</time>
      </trkpt>
      <trkpt lat="39.672980" lon="-5.806264">
        <ele>558.0</ele>
        <time>2019-07-05T07:32:15Z</time>
      </trkpt>
      <trkpt lat="39.672809" lon="-5.806345">
        <ele>558.0</ele>
        <time>2019-07-05T07:32:33Z</time>
      </trkpt>
      <trkpt lat="39.672720" lon="-5.806376">
        <ele>558.0</ele>
        <time>2019-07-05T07:32:42Z</time>
      </trkpt>
      <trkpt lat="39.672598" lon="-5.806424">
        <ele>558.6</ele>
        <time>2019-07-05T07:32:55Z</time>
      </trkpt>
      <trkpt lat="39.672447" lon="-5.806488">
        <ele>559.0</ele>
        <time>2019-07-05T07:33:11Z</time>
      </trkpt>
      <trkpt lat="39.672325" lon="-5.806518">
        <ele>559.0</ele>
        <time>2019-07-05T07:33:23Z</time>
      </trkpt>
      <trkpt lat="39.672176" lon="-5.806555">
        <ele>559.0</ele>
        <time>2019-07-05T07:33:38Z</time>
      </trkpt>
      <trkpt lat="39.672040" lon="-5.806585">
        <ele>559.0</ele>
        <time>2019-07-05T07:33:52Z</time>
      </trkpt>
      <trkpt lat="39.671931" lon="-5.806615">
        <ele>559.0</ele>
        <time>2019-07-05T07:34:03Z</time>
      </trkpt>
      <trkpt lat="39.671856" lon="-5.806621">
        <ele>559.0</ele>
        <time>2019-07-05T07:34:11Z</time>
      </trkpt>
      <trkpt lat="39.671847" lon="-5.806624">
        <ele>559.0</ele>
        <time>2019-07-05T07:34:12Z</time>
      </trkpt>
      <trkpt lat="39.671719" lon="-5.806642">
        <ele>559.4</ele>
        <time>2019-07-05T07:34:25Z</time>
      </trkpt>
      <trkpt lat="39.671731" lon="-5.806785">
        <ele>559.8</ele>
        <time>2019-07-05T07:34:36Z</time>
      </trkpt>
      <trkpt lat="39.671758" lon="-5.807057">
        <ele>560.0</ele>
        <time>2019-07-05T07:34:57Z</time>
      </trkpt>
      <trkpt lat="39.671752" lon="-5.807293">
        <ele>560.0</ele>
        <time>2019-07-05T07:35:15Z</time>
      </trkpt>
      <trkpt lat="39.671745" lon="-5.807590">
        <ele>560.0</ele>
        <time>2019-07-05T07:35:38Z</time>
      </trkpt>
      <trkpt lat="39.671759" lon="-5.807853">
        <ele>559.4</ele>
        <time>2019-07-05T07:35:58Z</time>
      </trkpt>
      <trkpt lat="39.671773" lon="-5.808116">
        <ele>559.0</ele>
        <time>2019-07-05T07:36:18Z</time>
      </trkpt>
      <trkpt lat="39.671783" lon="-5.808273">
        <ele>559.0</ele>
        <time>2019-07-05T07:36:30Z</time>
      </trkpt>
      <trkpt lat="39.671806" lon="-5.808423">
        <ele>559.0</ele>
        <time>2019-07-05T07:36:42Z</time>
      </trkpt>
      <trkpt lat="39.671851" lon="-5.808538">
        <ele>559.0</ele>
        <time>2019-07-05T07:36:52Z</time>
      </trkpt>
      <trkpt lat="39.671935" lon="-5.808664">
        <ele>559.0</ele>
        <time>2019-07-05T07:37:05Z</time>
      </trkpt>
      <trkpt lat="39.672046" lon="-5.808826">
        <ele>559.0</ele>
        <time>2019-07-05T07:37:22Z</time>
      </trkpt>
      <trkpt lat="39.672178" lon="-5.808971">
        <ele>559.0</ele>
        <time>2019-07-05T07:37:39Z</time>
      </trkpt>
      <trkpt lat="39.672290" lon="-5.809107">
        <ele>559.0</ele>
        <time>2019-07-05T07:37:54Z</time>
      </trkpt>
      <trkpt lat="39.672395" lon="-5.809216">
        <ele>558.1</ele>
        <time>2019-07-05T07:38:08Z</time>
      </trkpt>
      <trkpt lat="39.672493" lon="-5.809343">
        <ele>558.0</ele>
        <time>2019-07-05T07:38:21Z</time>
      </trkpt>
      <trkpt lat="39.672592" lon="-5.809443">
        <ele>558.0</ele>
        <time>2019-07-05T07:38:34Z</time>
      </trkpt>
      <trkpt lat="39.672670" lon="-5.809577">
        <ele>558.0</ele>
        <time>2019-07-05T07:38:47Z</time>
      </trkpt>
      <trkpt lat="39.672761" lon="-5.809712">
        <ele>557.8</ele>
        <time>2019-07-05T07:39:01Z</time>
      </trkpt>
      <trkpt lat="39.672846" lon="-5.809838">
        <ele>557.0</ele>
        <time>2019-07-05T07:39:14Z</time>
      </trkpt>
      <trkpt lat="39.672951" lon="-5.809956">
        <ele>557.0</ele>
        <time>2019-07-05T07:39:27Z</time>
      </trkpt>
      <trkpt lat="39.673064" lon="-5.810056">
        <ele>557.0</ele>
        <time>2019-07-05T07:39:41Z</time>
      </trkpt>
      <trkpt lat="39.673183" lon="-5.810157">
        <ele>556.0</ele>
        <time>2019-07-05T07:39:55Z</time>
      </trkpt>
      <trkpt lat="39.673329" lon="-5.810251">
        <ele>556.0</ele>
        <time>2019-07-05T07:40:12Z</time>
      </trkpt>
      <trkpt lat="39.673482" lon="-5.810344">
        <ele>556.0</ele>
        <time>2019-07-05T07:40:29Z</time>
      </trkpt>
      <trkpt lat="39.673616" lon="-5.810411">
        <ele>555.2</ele>
        <time>2019-07-05T07:40:43Z</time>
      </trkpt>
      <trkpt lat="39.673770" lon="-5.810478">
        <ele>555.7</ele>
        <time>2019-07-05T07:40:59Z</time>
      </trkpt>
      <trkpt lat="39.673931" lon="-5.810529">
        <ele>556.0</ele>
        <time>2019-07-05T07:41:16Z</time>
      </trkpt>
      <trkpt lat="39.674086" lon="-5.810552">
        <ele>556.0</ele>
        <time>2019-07-05T07:41:31Z</time>
      </trkpt>
      <trkpt lat="39.674219" lon="-5.810619">
        <ele>556.0</ele>
        <time>2019-07-05T07:41:45Z</time>
      </trkpt>
      <trkpt lat="39.674339" lon="-5.810668">
        <ele>556.0</ele>
        <time>2019-07-05T07:41:58Z</time>
      </trkpt>
      <trkpt lat="39.674446" lon="-5.810724">
        <ele>555.0</ele>
        <time>2019-07-05T07:42:10Z</time>
      </trkpt>
      <trkpt lat="39.674558" lon="-5.810834">
        <ele>555.0</ele>
        <time>2019-07-05T07:42:24Z</time>
      </trkpt>
      <trkpt lat="39.674643" lon="-5.810977">
        <ele>555.0</ele>
        <time>2019-07-05T07:42:37Z</time>
      </trkpt>
      <trkpt lat="39.674734" lon="-5.811103">
        <ele>555.0</ele>
        <time>2019-07-05T07:42:51Z</time>
      </trkpt>
      <trkpt lat="39.674772" lon="-5.811201">
        <ele>555.0</ele>
        <time>2019-07-05T07:42:59Z</time>
      </trkpt>
      <trkpt lat="39.674847" lon="-5.811195">
        <ele>555.0</ele>
        <time>2019-07-05T07:43:07Z</time>
      </trkpt>
      <trkpt lat="39.674919" lon="-5.811268">
        <ele>555.0</ele>
        <time>2019-07-05T07:43:16Z</time>
      </trkpt>
      <trkpt lat="39.675025" lon="-5.811377">
        <ele>555.0</ele>
        <time>2019-07-05T07:43:29Z</time>
      </trkpt>
      <trkpt lat="39.675090" lon="-5.811476">
        <ele>555.0</ele>
        <time>2019-07-05T07:43:39Z</time>
      </trkpt>
      <trkpt lat="39.675247" lon="-5.811684">
        <ele>554.0</ele>
        <time>2019-07-05T07:44:02Z</time>
      </trkpt>
      <trkpt lat="39.675345" lon="-5.811819">
        <ele>554.0</ele>
        <time>2019-07-05T07:44:16Z</time>
      </trkpt>
      <trkpt lat="39.675456" lon="-5.811989">
        <ele>554.0</ele>
        <time>2019-07-05T07:44:33Z</time>
      </trkpt>
      <trkpt lat="39.675567" lon="-5.812134">
        <ele>554.0</ele>
        <time>2019-07-05T07:44:49Z</time>
      </trkpt>
      <trkpt lat="39.675685" lon="-5.812279">
        <ele>553.0</ele>
        <time>2019-07-05T07:45:05Z</time>
      </trkpt>
      <trkpt lat="39.675817" lon="-5.812406">
        <ele>553.0</ele>
        <time>2019-07-05T07:45:22Z</time>
      </trkpt>
      <trkpt lat="39.675910" lon="-5.812471">
        <ele>553.0</ele>
        <time>2019-07-05T07:45:32Z</time>
      </trkpt>
      <trkpt lat="39.675990" lon="-5.812553">
        <ele>553.0</ele>
        <time>2019-07-05T07:45:42Z</time>
      </trkpt>
      <trkpt lat="39.676069" lon="-5.812626">
        <ele>553.0</ele>
        <time>2019-07-05T07:45:52Z</time>
      </trkpt>
      <trkpt lat="39.676047" lon="-5.812678">
        <ele>553.0</ele>
        <time>2019-07-05T07:45:56Z</time>
      </trkpt>
      <trkpt lat="39.675985" lon="-5.812754">
        <ele>553.0</ele>
        <time>2019-07-05T07:46:05Z</time>
      </trkpt>
      <trkpt lat="39.675902" lon="-5.812838">
        <ele>553.5</ele>
        <time>2019-07-05T07:46:16Z</time>
      </trkpt>
      <trkpt lat="39.675819" lon="-5.812913">
        <ele>554.0</ele>
        <time>2019-07-05T07:46:26Z</time>
      </trkpt>
      <trkpt lat="39.675729" lon="-5.812971">
        <ele>554.0</ele>
        <time>2019-07-05T07:46:36Z</time>
      </trkpt>
      <trkpt lat="39.675613" lon="-5.813028">
        <ele>554.0</ele>
        <time>2019-07-05T07:46:48Z</time>
      </trkpt>
      <trkpt lat="39.675477" lon="-5.813074">
        <ele>554.0</ele>
        <time>2019-07-05T07:47:02Z</time>
      </trkpt>
      <trkpt lat="39.675368" lon="-5.813096">
        <ele>554.0</ele>
        <time>2019-07-05T07:47:13Z</time>
      </trkpt>
      <trkpt lat="39.675226" lon="-5.813117">
        <ele>554.0</ele>
        <time>2019-07-05T07:47:27Z</time>
      </trkpt>
      <trkpt lat="39.675111" lon="-5.813138">
        <ele>553.0</ele>
        <time>2019-07-05T07:47:39Z</time>
      </trkpt>
      <trkpt lat="39.674975" lon="-5.813176">
        <ele>550.6</ele>
        <time>2019-07-05T07:47:53Z</time>
      </trkpt>
      <trkpt lat="39.674852" lon="-5.813215">
        <ele>548.5</ele>
        <time>2019-07-05T07:48:06Z</time>
      </trkpt>
      <trkpt lat="39.674709" lon="-5.813253">
        <ele>546.0</ele>
        <time>2019-07-05T07:48:21Z</time>
      </trkpt>
      <trkpt lat="39.674607" lon="-5.813293">
        <ele>543.5</ele>
        <time>2019-07-05T07:48:31Z</time>
      </trkpt>
      <trkpt lat="39.674471" lon="-5.813340">
        <ele>539.9</ele>
        <time>2019-07-05T07:48:46Z</time>
      </trkpt>
      <trkpt lat="39.674335" lon="-5.813378">
        <ele>536.4</ele>
        <time>2019-07-05T07:49:00Z</time>
      </trkpt>
      <trkpt lat="39.674212" lon="-5.813434">
        <ele>534.4</ele>
        <time>2019-07-05T07:49:13Z</time>
      </trkpt>
      <trkpt lat="39.674088" lon="-5.813499">
        <ele>530.7</ele>
        <time>2019-07-05T07:49:27Z</time>
      </trkpt>
      <trkpt lat="39.673966" lon="-5.813529">
        <ele>528.2</ele>
        <time>2019-07-05T07:49:40Z</time>
      </trkpt>
      <trkpt lat="39.673830" lon="-5.813558">
        <ele>525.5</ele>
        <time>2019-07-05T07:49:54Z</time>
      </trkpt>
      <trkpt lat="39.673736" lon="-5.813555">
        <ele>524.1</ele>
        <time>2019-07-05T07:50:03Z</time>
      </trkpt>
      <trkpt lat="39.673614" lon="-5.813567">
        <ele>522.0</ele>
        <time>2019-07-05T07:50:15Z</time>
      </trkpt>
      <trkpt lat="39.673518" lon="-5.813598">
        <ele>521.4</ele>
        <time>2019-07-05T07:50:25Z</time>
      </trkpt>
      <trkpt lat="39.673376" lon="-5.813636">
        <ele>519.9</ele>
        <time>2019-07-05T07:50:40Z</time>
      </trkpt>
      <trkpt lat="39.673267" lon="-5.813667">
        <ele>518.1</ele>
        <time>2019-07-05T07:50:51Z</time>
      </trkpt>
      <trkpt lat="39.673185" lon="-5.813707">
        <ele>517.6</ele>
        <time>2019-07-05T07:51:00Z</time>
      </trkpt>
      <trkpt lat="39.673095" lon="-5.813773">
        <ele>516.0</ele>
        <time>2019-07-05T07:51:10Z</time>
      </trkpt>
      <trkpt lat="39.672958" lon="-5.813855">
        <ele>514.6</ele>
        <time>2019-07-05T07:51:25Z</time>
      </trkpt>
      <trkpt lat="39.672848" lon="-5.813929">
        <ele>512.9</ele>
        <time>2019-07-05T07:51:38Z</time>
      </trkpt>
      <trkpt lat="39.672662" lon="-5.814105">
        <ele>511.2</ele>
        <time>2019-07-05T07:52:01Z</time>
      </trkpt>
      <trkpt lat="39.672578" lon="-5.814198">
        <ele>509.1</ele>
        <time>2019-07-05T07:52:12Z</time>
      </trkpt>
      <trkpt lat="39.672494" lon="-5.814335">
        <ele>507.8</ele>
        <time>2019-07-05T07:52:26Z</time>
      </trkpt>
      <trkpt lat="39.672410" lon="-5.814454">
        <ele>506.1</ele>
        <time>2019-07-05T07:52:38Z</time>
      </trkpt>
      <trkpt lat="39.672299" lon="-5.814572">
        <ele>504.1</ele>
        <time>2019-07-05T07:52:53Z</time>
      </trkpt>
      <trkpt lat="39.672195" lon="-5.814672">
        <ele>503.0</ele>
        <time>2019-07-05T07:53:06Z</time>
      </trkpt>
      <trkpt lat="39.672091" lon="-5.814773">
        <ele>501.6</ele>
        <time>2019-07-05T07:53:19Z</time>
      </trkpt>
      <trkpt lat="39.672002" lon="-5.814839">
        <ele>500.1</ele>
        <time>2019-07-05T07:53:29Z</time>
      </trkpt>
      <trkpt lat="39.671879" lon="-5.814913">
        <ele>498.9</ele>
        <time>2019-07-05T07:53:43Z</time>
      </trkpt>
      <trkpt lat="39.671776" lon="-5.814961">
        <ele>497.1</ele>
        <time>2019-07-05T07:53:54Z</time>
      </trkpt>
      <trkpt lat="39.671680" lon="-5.815036">
        <ele>496.1</ele>
        <time>2019-07-05T07:54:05Z</time>
      </trkpt>
      <trkpt lat="39.671582" lon="-5.814875">
        <ele>496.0</ele>
        <time>2019-07-05T07:54:21Z</time>
      </trkpt>
      <trkpt lat="39.671524" lon="-5.814776">
        <ele>496.0</ele>
        <time>2019-07-05T07:54:30Z</time>
      </trkpt>
      <trkpt lat="39.671459" lon="-5.814669">
        <ele>496.2</ele>
        <time>2019-07-05T07:54:41Z</time>
      </trkpt>
      <trkpt lat="39.671373" lon="-5.814604">
        <ele>496.7</ele>
        <time>2019-07-05T07:54:51Z</time>
      </trkpt>
      <trkpt lat="39.671225" lon="-5.814554">
        <ele>497.0</ele>
        <time>2019-07-05T07:55:06Z</time>
      </trkpt>
      <trkpt lat="39.671091" lon="-5.814514">
        <ele>497.9</ele>
        <time>2019-07-05T07:55:20Z</time>
      </trkpt>
      <trkpt lat="39.670923" lon="-5.814472">
        <ele>499.0</ele>
        <time>2019-07-05T07:55:37Z</time>
      </trkpt>
      <trkpt lat="39.670742" lon="-5.814438">
        <ele>499.2</ele>
        <time>2019-07-05T07:55:55Z</time>
      </trkpt>
      <trkpt lat="39.670634" lon="-5.814416">
        <ele>499.7</ele>
        <time>2019-07-05T07:56:06Z</time>
      </trkpt>
      <trkpt lat="39.670527" lon="-5.814377">
        <ele>500.5</ele>
        <time>2019-07-05T07:56:17Z</time>
      </trkpt>
      <trkpt lat="39.670454" lon="-5.814330">
        <ele>501.6</ele>
        <time>2019-07-05T07:56:25Z</time>
      </trkpt>
      <trkpt lat="39.670448" lon="-5.814295">
        <ele>502.0</ele>
        <time>2019-07-05T07:56:28Z</time>
      </trkpt>
      <trkpt lat="39.670489" lon="-5.814279">
        <ele>502.0</ele>
        <time>2019-07-05T07:56:32Z</time>
      </trkpt>
      <trkpt lat="39.670557" lon="-5.814256">
        <ele>502.0</ele>
        <time>2019-07-05T07:56:39Z</time>
      </trkpt>
      <trkpt lat="39.670665" lon="-5.814234">
        <ele>501.7</ele>
        <time>2019-07-05T07:56:50Z</time>
      </trkpt>
      <trkpt lat="39.670781" lon="-5.814204">
        <ele>502.0</ele>
        <time>2019-07-05T07:57:02Z</time>
      </trkpt>
      <trkpt lat="39.670876" lon="-5.814173">
        <ele>502.0</ele>
        <time>2019-07-05T07:57:12Z</time>
      </trkpt>
      <trkpt lat="39.670958" lon="-5.814141">
        <ele>501.7</ele>
        <time>2019-07-05T07:57:20Z</time>
      </trkpt>
      <trkpt lat="39.671054" lon="-5.814101">
        <ele>501.7</ele>
        <time>2019-07-05T07:57:31Z</time>
      </trkpt>
      <trkpt lat="39.671156" lon="-5.814053">
        <ele>501.6</ele>
        <time>2019-07-05T07:57:41Z</time>
      </trkpt>
      <trkpt lat="39.671259" lon="-5.814013">
        <ele>501.3</ele>
        <time>2019-07-05T07:57:52Z</time>
      </trkpt>
      <trkpt lat="39.671340" lon="-5.813982">
        <ele>501.1</ele>
        <time>2019-07-05T07:58:01Z</time>
      </trkpt>
      <trkpt lat="39.671429" lon="-5.813951">
        <ele>501.8</ele>
        <time>2019-07-05T07:58:10Z</time>
      </trkpt>
      <trkpt lat="39.671538" lon="-5.813920">
        <ele>502.4</ele>
        <time>2019-07-05T07:58:21Z</time>
      </trkpt>
      <trkpt lat="39.671640" lon="-5.813872">
        <ele>502.0</ele>
        <time>2019-07-05T07:58:32Z</time>
      </trkpt>
      <trkpt lat="39.671715" lon="-5.813840">
        <ele>502.2</ele>
        <time>2019-07-05T07:58:40Z</time>
      </trkpt>
      <trkpt lat="39.671805" lon="-5.813773">
        <ele>502.7</ele>
        <time>2019-07-05T07:58:50Z</time>
      </trkpt>
      <trkpt lat="39.671895" lon="-5.813690">
        <ele>503.4</ele>
        <time>2019-07-05T07:59:01Z</time>
      </trkpt>
      <trkpt lat="39.671998" lon="-5.813606">
        <ele>504.2</ele>
        <time>2019-07-05T07:59:13Z</time>
      </trkpt>
      <trkpt lat="39.672108" lon="-5.813523">
        <ele>506.0</ele>
        <time>2019-07-05T07:59:26Z</time>
      </trkpt>
      <trkpt lat="39.672177" lon="-5.813483">
        <ele>506.1</ele>
        <time>2019-07-05T07:59:34Z</time>
      </trkpt>
      <trkpt lat="39.672266" lon="-5.813442">
        <ele>507.0</ele>
        <time>2019-07-05T07:59:43Z</time>
      </trkpt>
      <trkpt lat="39.672340" lon="-5.813419">
        <ele>507.0</ele>
        <time>2019-07-05T07:59:51Z</time>
      </trkpt>
      <trkpt lat="39.672341" lon="-5.813410">
        <ele>507.0</ele>
        <time>2019-07-05T07:59:51Z</time>
      </trkpt>
      <trkpt lat="39.672259" lon="-5.813433">
        <ele>507.0</ele>
        <time>2019-07-05T08:00:00Z</time>
      </trkpt>
      <trkpt lat="39.672170" lon="-5.813473">
        <ele>506.0</ele>
        <time>2019-07-05T08:00:09Z</time>
      </trkpt>
      <trkpt lat="39.672102" lon="-5.813514">
        <ele>506.0</ele>
        <time>2019-07-05T08:00:17Z</time>
      </trkpt>
      <trkpt lat="39.671991" lon="-5.813597">
        <ele>504.4</ele>
        <time>2019-07-05T08:00:30Z</time>
      </trkpt>
      <trkpt lat="39.671888" lon="-5.813681">
        <ele>503.6</ele>
        <time>2019-07-05T08:00:42Z</time>
      </trkpt>
      <trkpt lat="39.671805" lon="-5.813765">
        <ele>502.9</ele>
        <time>2019-07-05T08:00:52Z</time>
      </trkpt>
      <trkpt lat="39.671709" lon="-5.813839">
        <ele>502.2</ele>
        <time>2019-07-05T08:01:03Z</time>
      </trkpt>
      <trkpt lat="39.671634" lon="-5.813863">
        <ele>502.0</ele>
        <time>2019-07-05T08:01:11Z</time>
      </trkpt>
      <trkpt lat="39.671531" lon="-5.813911">
        <ele>502.6</ele>
        <time>2019-07-05T08:01:22Z</time>
      </trkpt>
      <trkpt lat="39.671422" lon="-5.813942">
        <ele>502.0</ele>
        <time>2019-07-05T08:01:33Z</time>
      </trkpt>
      <trkpt lat="39.671334" lon="-5.813973">
        <ele>501.3</ele>
        <time>2019-07-05T08:01:42Z</time>
      </trkpt>
      <trkpt lat="39.671259" lon="-5.813996">
        <ele>501.6</ele>
        <time>2019-07-05T08:01:50Z</time>
      </trkpt>
      <trkpt lat="39.671150" lon="-5.814044">
        <ele>501.7</ele>
        <time>2019-07-05T08:02:02Z</time>
      </trkpt>
      <trkpt lat="39.671047" lon="-5.814092">
        <ele>501.9</ele>
        <time>2019-07-05T08:02:12Z</time>
      </trkpt>
      <trkpt lat="39.670951" lon="-5.814141">
        <ele>501.7</ele>
        <time>2019-07-05T08:02:23Z</time>
      </trkpt>
      <trkpt lat="39.670876" lon="-5.814173">
        <ele>502.0</ele>
        <time>2019-07-05T08:02:31Z</time>
      </trkpt>
      <trkpt lat="39.670774" lon="-5.814195">
        <ele>502.1</ele>
        <time>2019-07-05T08:02:41Z</time>
      </trkpt>
      <trkpt lat="39.670659" lon="-5.814225">
        <ele>501.9</ele>
        <time>2019-07-05T08:02:53Z</time>
      </trkpt>
      <trkpt lat="39.670550" lon="-5.814247">
        <ele>502.0</ele>
        <time>2019-07-05T08:03:04Z</time>
      </trkpt>
      <trkpt lat="39.670482" lon="-5.814271">
        <ele>502.0</ele>
        <time>2019-07-05T08:03:11Z</time>
      </trkpt>
      <trkpt lat="39.670441" lon="-5.814278">
        <ele>502.0</ele>
        <time>2019-07-05T08:03:15Z</time>
      </trkpt>
      <trkpt lat="39.670373" lon="-5.814292">
        <ele>501.0</ele>
        <time>2019-07-05T08:03:22Z</time>
      </trkpt>
      <trkpt lat="39.670265" lon="-5.814297">
        <ele>502.0</ele>
        <time>2019-07-05T08:03:33Z</time>
      </trkpt>
      <trkpt lat="39.670116" lon="-5.814299">
        <ele>502.0</ele>
        <time>2019-07-05T08:03:48Z</time>
      </trkpt>
      <trkpt lat="39.670008" lon="-5.814295">
        <ele>502.5</ele>
        <time>2019-07-05T08:03:58Z</time>
      </trkpt>
      <trkpt lat="39.669888" lon="-5.814264">
        <ele>503.0</ele>
        <time>2019-07-05T08:04:11Z</time>
      </trkpt>
      <trkpt lat="39.669747" lon="-5.814223">
        <ele>504.9</ele>
        <time>2019-07-05T08:04:25Z</time>
      </trkpt>
      <trkpt lat="39.669613" lon="-5.814183">
        <ele>505.7</ele>
        <time>2019-07-05T08:04:39Z</time>
      </trkpt>
      <trkpt lat="39.669458" lon="-5.814133">
        <ele>506.0</ele>
        <time>2019-07-05T08:04:55Z</time>
      </trkpt>
      <trkpt lat="39.669284" lon="-5.814082">
        <ele>505.8</ele>
        <time>2019-07-05T08:05:13Z</time>
      </trkpt>
      <trkpt lat="39.669177" lon="-5.814043">
        <ele>505.0</ele>
        <time>2019-07-05T08:05:24Z</time>
      </trkpt>
      <trkpt lat="39.669084" lon="-5.813986">
        <ele>504.4</ele>
        <time>2019-07-05T08:05:34Z</time>
      </trkpt>
      <trkpt lat="39.668983" lon="-5.813947">
        <ele>503.0</ele>
        <time>2019-07-05T08:05:45Z</time>
      </trkpt>
      <trkpt lat="39.668863" lon="-5.813899">
        <ele>502.5</ele>
        <time>2019-07-05T08:05:57Z</time>
      </trkpt>
      <trkpt lat="39.668783" lon="-5.813843">
        <ele>501.2</ele>
        <time>2019-07-05T08:06:06Z</time>
      </trkpt>
      <trkpt lat="39.668704" lon="-5.813779">
        <ele>501.0</ele>
        <time>2019-07-05T08:06:16Z</time>
      </trkpt>
      <trkpt lat="39.668631" lon="-5.813688">
        <ele>500.8</ele>
        <time>2019-07-05T08:06:26Z</time>
      </trkpt>
      <trkpt lat="39.668593" lon="-5.813617">
        <ele>500.9</ele>
        <time>2019-07-05T08:06:32Z</time>
      </trkpt>
      <trkpt lat="39.668554" lon="-5.813528">
        <ele>501.2</ele>
        <time>2019-07-05T08:06:40Z</time>
      </trkpt>
      <trkpt lat="39.668516" lon="-5.813421">
        <ele>500.7</ele>
        <time>2019-07-05T08:06:49Z</time>
      </trkpt>
      <trkpt lat="39.668479" lon="-5.813271">
        <ele>500.4</ele>
        <time>2019-07-05T08:07:01Z</time>
      </trkpt>
      <trkpt lat="39.668428" lon="-5.813147">
        <ele>500.1</ele>
        <time>2019-07-05T08:07:12Z</time>
      </trkpt>
      <trkpt lat="39.668356" lon="-5.813056">
        <ele>500.0</ele>
        <time>2019-07-05T08:07:22Z</time>
      </trkpt>
      <trkpt lat="39.668278" lon="-5.812948">
        <ele>500.2</ele>
        <time>2019-07-05T08:07:34Z</time>
      </trkpt>
      <trkpt lat="39.668205" lon="-5.812867">
        <ele>501.0</ele>
        <time>2019-07-05T08:07:43Z</time>
      </trkpt>
      <trkpt lat="39.668153" lon="-5.812821">
        <ele>501.0</ele>
        <time>2019-07-05T08:07:50Z</time>
      </trkpt>
      <trkpt lat="39.668072" lon="-5.812818">
        <ele>501.0</ele>
        <time>2019-07-05T08:07:58Z</time>
      </trkpt>
      <trkpt lat="39.667969" lon="-5.812848">
        <ele>501.0</ele>
        <time>2019-07-05T08:08:08Z</time>
      </trkpt>
      <trkpt lat="39.667880" lon="-5.812897">
        <ele>501.2</ele>
        <time>2019-07-05T08:08:18Z</time>
      </trkpt>
      <trkpt lat="39.667825" lon="-5.812939">
        <ele>501.0</ele>
        <time>2019-07-05T08:08:24Z</time>
      </trkpt>
      <trkpt lat="39.667704" lon="-5.812908">
        <ele>502.0</ele>
        <time>2019-07-05T08:08:37Z</time>
      </trkpt>
      <trkpt lat="39.667617" lon="-5.812887">
        <ele>502.0</ele>
        <time>2019-07-05T08:08:45Z</time>
      </trkpt>
      <trkpt lat="39.667490" lon="-5.812855">
        <ele>502.0</ele>
        <time>2019-07-05T08:08:58Z</time>
      </trkpt>
      <trkpt lat="39.667375" lon="-5.812824">
        <ele>502.0</ele>
        <time>2019-07-05T08:09:10Z</time>
      </trkpt>
      <trkpt lat="39.667315" lon="-5.812813">
        <ele>502.0</ele>
        <time>2019-07-05T08:09:16Z</time>
      </trkpt>
      <trkpt lat="39.667255" lon="-5.813055">
        <ele>502.0</ele>
        <time>2019-07-05T08:09:36Z</time>
      </trkpt>
      <trkpt lat="39.667195" lon="-5.813280">
        <ele>502.0</ele>
        <time>2019-07-05T08:09:54Z</time>
      </trkpt>
    </trkseg>
  </trk>
  <wpt lat="39.667739" lon="-5.808952">
    <ele>0</ele>
    <name>Fuente de Arriba</name>
    <desc></desc>
    <sym></sym>
  </wpt>
  <wpt lat="39.667535" lon="-5.809879">
    <ele>0</ele>
    <name>Fuente de Abajo</name>
    <desc></desc>
    <sym></sym>
  </wpt>
  <wpt lat="39.666089" lon="-5.799251">
    <ele>0</ele>
    <name>Fuente del Camino</name>
    <desc></desc>
    <sym></sym>
  </wpt>
  <wpt lat="39.675543" lon="-5.805325">
    <ele>0</ele>
    <name>Fuente del Valle</name>
    <desc></desc>
    <sym></sym>
  </wpt>
  <wpt lat="39.672451" lon="-5.813406">
    <ele>0</ele>
    <name>Fuente de la Cañá</name>
    <desc></desc>
    <sym></sym>
  </wpt>
  <wpt lat="39.667173" lon="-5.813280">
    <ele>0</ele>
    <name>INICIO RUTA</name>
    <desc></desc>
    <sym></sym>
  </wpt>
</gpx>
